Redding Municipal Airport
KRDD : now visible

Airfield :











YOU CAN JOIN US ON...

 
LOGIN :

Register | Disclaimer

   EN    FR    IT 

 









Legend :    VFR   Marginal VFR   IFR   Intensive IFR   Very Intensive IFR
Visi :
Ceiling :
>= 8 km
>= 3000ft
5 to 8 km
1000 to 3000 ft
1500m to 5 km
500 to 1000 ft
800 to 1500m
200 to 500 ft
< 800m
< 200 ft
Symbols :   Thunderstorms  Fog  Heavy snow  Heavy precipitations  Wind > 20 kt






- Airport Elevation : 505 ft
- IATA code : RDD


KRDD - Redding Municipal

CURRENT METAR :
  • 291553Z 35003KT 10SM CLR 27/17 A2981 RMK AO2 SLP089 T02720167

EXPIRED METARs :
  • 291453Z 03003KT 10SM CLR 24/16 A2982 RMK AO2 SLP093 T02440161 50005
  • 291353Z 00000KT 10SM CLR 22/17 A2983 RMK AO2 SLP094 T02170167

TAF KRDD
Valid from the 29 at 12:00 until the 30 at 12:00 UTC


291135Z 2912/3012 VRB05KT P6SM FEW250
FM292200 18012KT P6SM FEW250
FM300800 20010KT P6SM -SHRA OVC250
KZOA FIR / North America



MET'MAP, your aeronautical weather chart ! - Copyright ORBIFLY December 2007 - Disclaimer

ORBIFLY MET'MAP TEAM :

Programming & Development : Alexandra Zaïnal
Concept & original design : Baudouin d'Aumeries
Assistance for programming : Marc-Olivier Méhu
Technical & hardware support : Manuel Goepfert

Contact : metmap@orbifly.com




SOURCES & CREDITS :

   NOAA       Earth
Advisory